Time;durP1;ratioP1;P1;durP2;ratioP2;P2;SDS_P1;SDS_P2;PMS_P1;PMS_P2;Temp;Humidity;BMP_temperature;BMP_pressure;BME280_temperature;BME280_humidity;BME280_pressure;Samples;Min_cycle;Max_cycle;Signal;HPM_P1;HPM_P2
2021/12/24 00:00:50;;;;;;;33.20;23.40;;;;;;;;;;5011626;28;20217;-61
2021/12/24 00:03:15;;;;;;;34.90;23.25;;;;;;;;;;5012353;28;20221;-61
2021/12/24 00:05:40;;;;;;;31.93;22.50;;;;;;;;;;5012238;28;20209;-61
2021/12/24 00:08:06;;;;;;;31.95;22.75;;;;;;;;;;5012182;28;20205;-61
2021/12/24 00:10:32;;;;;;;31.83;22.70;;;;;;;;;;5011111;28;20208;-61
2021/12/24 00:13:02;;;;;;;35.15;23.17;;;;;;;;;;5011964;28;20212;-61
2021/12/24 00:15:51;;;;;;;32.17;22.27;;;;;;;;;;5012154;28;20267;-61
2021/12/24 00:18:28;;;;;;;31.08;21.77;;;;;;;;;;5011988;28;20578;-61
2021/12/24 00:35:10;;;;;;;31.38;21.92;;;;;;;;;;4991772;28;20231;-61
2021/12/24 00:35:15;;;;;;;32.50;22.73;;;;;;;;;;4991884;28;20248;-61
2021/12/24 00:37:40;;;;;;;33.03;22.83;;;;;;;;;;4992132;28;20748;-61
2021/12/24 00:40:17;;;;;;;30.20;22.38;;;;;;;;;;4991346;28;20294;-61
2021/12/24 00:42:45;;;;;;;31.60;22.40;;;;;;;;;;4992262;28;20621;-61
2021/12/24 00:45:10;;;;;;;32.22;22.45;;;;;;;;;;4990478;28;20866;-61
2021/12/24 00:47:36;;;;;;;33.38;22.45;;;;;;;;;;4991694;28;20263;-61
2021/12/24 00:50:06;;;;;;;32.60;22.13;;;;;;;;;;4991849;28;20248;-61
2021/12/24 00:52:45;;;;;;;31.50;22.17;;;;;;;;;;5008954;28;20208;-61
2021/12/24 00:55:11;;;;;;;38.10;24.20;;;;;;;;;;5010720;28;20224;-61
2021/12/24 00:57:37;;;;;;;35.83;22.92;;;;;;;;;;5011506;28;20755;-61
2021/12/24 01:00:04;;;;;;;30.73;21.58;;;;;;;;;;5011375;28;20212;-62
2021/12/24 01:02:29;;;;;;;31.85;22.35;;;;;;;;;;5009441;28;20205;-61
2021/12/24 01:04:54;;;;;;;34.15;22.08;;;;;;;;;;5011714;28;20213;-61
2021/12/24 01:07:20;;;;;;;29.47;20.50;;;;;;;;;;5009979;28;20355;-61
2021/12/24 01:09:45;;;;;;;29.70;19.38;;;;;;;;;;5010696;28;20235;-61
2021/12/24 01:12:10;;;;;;;27.50;18.27;;;;;;;;;;5011105;28;20216;-61
2021/12/24 01:14:36;;;;;;;28.95;20.10;;;;;;;;;;5011488;28;20568;-61
2021/12/24 01:17:20;;;;;;;29.45;19.08;;;;;;;;;;5008777;28;20252;-62
2021/12/24 01:19:48;;;;;;;25.65;17.55;;;;;;;;;;5011324;28;20217;-61
2021/12/24 01:25:11;;;;;;;26.98;18.10;;;;;;;;;;5011309;28;20243;-61
2021/12/24 01:38:26;;;;;;;31.67;19.45;;;;;;;;;;5008765;28;20301;-61
2021/12/24 01:41:06;;;;;;;30.25;19.77;;;;;;;;;;5010628;28;20216;-61
2021/12/24 01:43:31;;;;;;;29.80;18.30;;;;;;;;;;5009630;28;20216;-61
2021/12/24 01:45:56;;;;;;;27.07;18.20;;;;;;;;;;5009510;28;20241;-61
2021/12/24 01:48:22;;;;;;;31.92;18.80;;;;;;;;;;5010262;28;20652;-61
2021/12/24 01:50:47;;;;;;;26.70;17.75;;;;;;;;;;5010035;28;20212;-61
2021/12/24 01:53:13;;;;;;;27.63;17.80;;;;;;;;;;5010559;28;20781;-61
2021/12/24 01:55:39;;;;;;;22.35;16.27;;;;;;;;;;5009511;28;20586;-61
2021/12/24 01:58:04;;;;;;;25.55;16.65;;;;;;;;;;5009426;28;20255;-61
2021/12/24 02:00:31;;;;;;;23.70;16.77;;;;;;;;;;5010637;28;20262;-61
2021/12/24 02:02:56;;;;;;;21.60;16.35;;;;;;;;;;5009488;28;20820;-60
2021/12/24 02:05:22;;;;;;;21.17;15.85;;;;;;;;;;5009545;28;20675;-61
2021/12/24 02:07:47;;;;;;;22.98;16.35;;;;;;;;;;5010763;28;20215;-61
2021/12/24 02:10:13;;;;;;;23.00;16.48;;;;;;;;;;5010102;28;20220;-61
2021/12/24 02:12:38;;;;;;;21.45;16.30;;;;;;;;;;5009885;28;20212;-61
2021/12/24 02:15:06;;;;;;;23.70;17.35;;;;;;;;;;5010017;28;20208;-61
2021/12/24 02:17:56;;;;;;;23.70;17.35;;;;;;;;;;5010412;28;20633;-61
2021/12/24 02:28:51;;;;;;;28.10;18.80;;;;;;;;;;5009782;28;20245;-61
2021/12/24 02:31:19;;;;;;;30.30;19.52;;;;;;;;;;5010048;28;20657;-61
2021/12/24 02:33:44;;;;;;;32.35;20.42;;;;;;;;;;5008409;28;20217;-61
2021/12/24 02:36:09;;;;;;;26.92;19.42;;;;;;;;;;5009877;28;20307;-61
2021/12/24 02:38:34;;;;;;;25.10;18.40;;;;;;;;;;5010258;28;20220;-61
2021/12/24 02:41:00;;;;;;;29.60;19.80;;;;;;;;;;5008428;28;20223;-61
2021/12/24 02:43:25;;;;;;;28.98;19.83;;;;;;;;;;5009889;28;20266;-61
2021/12/24 02:45:53;;;;;;;28.48;20.35;;;;;;;;;;5010025;28;20839;-61
2021/12/24 02:48:56;;;;;;;28.52;20.77;;;;;;;;;;5007911;28;20304;-61
2021/12/24 02:56:24;;;;;;;33.72;22.33;;;;;;;;;;5012365;28;20259;-61
2021/12/24 02:58:49;;;;;;;33.58;23.85;;;;;;;;;;5012434;28;20216;-61
2021/12/24 03:01:15;;;;;;;34.85;22.95;;;;;;;;;;5012700;28;20213;-61
2021/12/24 03:03:42;;;;;;;35.05;23.58;;;;;;;;;;5014032;28;20204;-61
2021/12/24 03:06:07;;;;;;;34.22;23.00;;;;;;;;;;5013216;28;20214;-61
2021/12/24 03:08:33;;;;;;;34.50;24.77;;;;;;;;;;5013241;28;20308;-61
2021/12/24 03:10:59;;;;;;;39.88;24.85;;;;;;;;;;5013748;28;20576;-61
2021/12/24 03:13:24;;;;;;;40.13;25.95;;;;;;;;;;5013339;28;20216;-61
2021/12/24 03:15:51;;;;;;;43.67;25.73;;;;;;;;;;5012655;28;20212;-61
2021/12/24 03:18:23;;;;;;;38.47;25.08;;;;;;;;;;5013110;28;20267;-61
2021/12/24 03:20:49;;;;;;;37.50;25.10;;;;;;;;;;5012357;28;20267;-60
2021/12/24 03:23:33;;;;;;;38.08;26.42;;;;;;;;;;5012355;28;20220;-61
2021/12/24 03:25:59;;;;;;;38.58;24.77;;;;;;;;;;5013549;28;20208;-60
2021/12/24 03:28:24;;;;;;;46.67;26.95;;;;;;;;;;5012820;28;20216;-60
2021/12/24 03:30:49;;;;;;;44.25;26.38;;;;;;;;;;5006463;28;20244;-60
2021/12/24 03:33:14;;;;;;;37.85;26.15;;;;;;;;;;4993634;28;20271;-60
2021/12/24 03:35:40;;;;;;;43.45;25.48;;;;;;;;;;4993684;28;20236;-60
2021/12/24 03:38:05;;;;;;;42.13;24.90;;;;;;;;;;4992390;28;20249;-60
2021/12/24 03:40:30;;;;;;;43.47;24.95;;;;;;;;;;4993795;28;20512;-60
2021/12/24 03:42:55;;;;;;;46.97;26.42;;;;;;;;;;4992778;28;20213;-60
2021/12/24 03:45:28;;;;;;;40.30;25.55;;;;;;;;;;4992848;28;20224;-61
2021/12/24 03:47:59;;;;;;;42.75;25.83;;;;;;;;;;4993490;28;20213;-60
2021/12/24 03:50:42;;;;;;;45.60;25.85;;;;;;;;;;4992347;28;20209;-60
2021/12/24 03:54:55;;;;;;;38.03;24.60;;;;;;;;;;5012515;28;20259;-60
2021/12/24 03:55:53;;;;;;;46.03;24.27;;;;;;;;;;5011696;28;20208;-60
2021/12/24 03:58:18;;;;;;;35.97;22.48;;;;;;;;;;5011591;28;20212;-60
2021/12/24 04:00:43;;;;;;;40.72;23.17;;;;;;;;;;5012647;28;20213;-60
2021/12/24 04:03:09;;;;;;;36.67;20.52;;;;;;;;;;5012384;28;20212;-60
2021/12/24 04:05:34;;;;;;;34.67;21.27;;;;;;;;;;5010925;28;20219;-60
2021/12/24 04:07:59;;;;;;;33.00;20.42;;;;;;;;;;5011374;28;20301;-60
2021/12/24 04:12:50;;;;;;;35.05;20.30;;;;;;;;;;5012035;28;20205;-60
2021/12/24 04:15:15;;;;;;;37.83;21.25;;;;;;;;;;5010794;28;20256;-60
2021/12/24 04:17:42;;;;;;;32.85;18.38;;;;;;;;;;5012420;28;20256;-60
2021/12/24 04:25:26;;;;;;;31.23;19.02;;;;;;;;;;5010232;28;20219;-60
2021/12/24 04:27:52;;;;;;;32.70;18.42;;;;;;;;;;5012367;28;20248;-60
2021/12/24 04:30:23;;;;;;;30.08;18.33;;;;;;;;;;5011880;28;20207;-60
2021/12/24 04:32:58;;;;;;;28.00;18.33;;;;;;;;;;5011356;28;20223;-60
2021/12/24 04:51:14;;;;;;;31.00;18.83;;;;;;;;;;5011438;28;20222;-60
2021/12/24 05:02:11;;;;;;;34.42;18.92;;;;;;;;;;5009952;28;20232;-60
2021/12/24 05:04:46;;;;;;;34.05;19.05;;;;;;;;;;5009866;28;20584;-58
2021/12/24 05:07:38;;;;;;;30.38;19.63;;;;;;;;;;5011149;28;20302;-58
2021/12/24 05:09:58;;;;;;;25.80;17.35;;;;;;;;;;5011342;28;20212;-58
2021/12/24 05:12:23;;;;;;;28.25;18.65;;;;;;;;;;5011145;28;20215;-60
2021/12/24 05:14:49;;;;;;;30.40;18.60;;;;;;;;;;5010703;28;20217;-60
2021/12/24 05:17:28;;;;;;;26.77;16.98;;;;;;;;;;5010676;28;20217;-60
2021/12/24 05:22:37;;;;;;;32.25;17.77;;;;;;;;;;5010145;28;20211;-60
2021/12/24 05:25:02;;;;;;;30.75;18.00;;;;;;;;;;5010863;28;20208;-60
2021/12/24 05:27:28;;;;;;;28.42;17.85;;;;;;;;;;5011335;28;20312;-60
2021/12/24 05:29:53;;;;;;;27.27;15.93;;;;;;;;;;5010513;28;20209;-60
2021/12/24 05:32:18;;;;;;;31.33;17.10;;;;;;;;;;5010706;28;20285;-60
2021/12/24 05:34:44;;;;;;;32.42;17.02;;;;;;;;;;5009626;28;20236;-60
2021/12/24 05:37:09;;;;;;;30.83;16.50;;;;;;;;;;5009798;28;20236;-60
2021/12/24 05:39:34;;;;;;;24.85;15.32;;;;;;;;;;5010961;28;20239;-60
2021/12/24 05:42:00;;;;;;;28.15;16.25;;;;;;;;;;5011112;28;20231;-60
2021/12/24 05:44:25;;;;;;;29.98;14.68;;;;;;;;;;5009868;28;20274;-60
2021/12/24 05:46:50;;;;;;;30.27;15.43;;;;;;;;;;5010821;28;20598;-60
2021/12/24 05:49:16;;;;;;;27.90;15.50;;;;;;;;;;5010271;28;20302;-60
2021/12/24 05:51:41;;;;;;;27.35;14.30;;;;;;;;;;5008945;28;20240;-60
2021/12/24 05:54:07;;;;;;;27.17;14.38;;;;;;;;;;5010243;28;20216;-60
2021/12/24 05:56:32;;;;;;;28.83;15.27;;;;;;;;;;5008974;28;20216;-60
2021/12/24 05:58:57;;;;;;;27.50;14.77;;;;;;;;;;5010604;28;20232;-60
2021/12/24 06:01:23;;;;;;;25.42;14.85;;;;;;;;;;5010265;28;20236;-60
2021/12/24 06:03:49;;;;;;;30.17;13.98;;;;;;;;;;5009957;28;20258;-60
2021/12/24 06:06:14;;;;;;;23.52;12.50;;;;;;;;;;5010195;28;20672;-60
2021/12/24 06:08:39;;;;;;;24.52;12.82;;;;;;;;;;5010502;28;20208;-60
2021/12/24 06:11:05;;;;;;;27.88;13.40;;;;;;;;;;5008162;28;20248;-60
2021/12/24 06:13:30;;;;;;;24.42;12.05;;;;;;;;;;5009473;28;20266;-60
2021/12/24 06:15:55;;;;;;;28.20;11.70;;;;;;;;;;5010347;28;20303;-60
2021/12/24 06:18:25;;;;;;;24.05;11.35;;;;;;;;;;5008055;28;20354;-60
2021/12/24 06:20:51;;;;;;;28.33;12.73;;;;;;;;;;4993525;28;20212;-60
2021/12/24 06:23:18;;;;;;;23.30;11.65;;;;;;;;;;5009826;28;20704;-60
2021/12/24 06:25:44;;;;;;;28.30;11.90;;;;;;;;;;5008652;28;20212;-60
2021/12/24 06:28:09;;;;;;;26.70;11.30;;;;;;;;;;5011424;28;20211;-60
2021/12/24 06:30:34;;;;;;;21.27;10.82;;;;;;;;;;5014573;28;20630;-60
2021/12/24 06:33:00;;;;;;;26.98;11.35;;;;;;;;;;5013843;28;20216;-60
2021/12/24 06:35:25;;;;;;;23.90;10.52;;;;;;;;;;5013981;28;20216;-60
2021/12/24 06:37:51;;;;;;;24.52;10.82;;;;;;;;;;5014379;28;20232;-60
2021/12/24 06:40:16;;;;;;;22.48;10.48;;;;;;;;;;5011769;28;20220;-60
2021/12/24 06:42:42;;;;;;;29.05;11.30;;;;;;;;;;5014450;28;20299;-60
2021/12/24 06:45:07;;;;;;;21.48;9.77;;;;;;;;;;5013665;28;20687;-60
2021/12/24 06:47:32;;;;;;;24.30;9.35;;;;;;;;;;5013542;28;20215;-60
2021/12/24 06:49:58;;;;;;;18.85;8.52;;;;;;;;;;5014297;28;20271;-60
2021/12/24 06:52:23;;;;;;;16.38;8.68;;;;;;;;;;5013552;28;20726;-60
2021/12/24 06:54:48;;;;;;;22.60;9.25;;;;;;;;;;5011997;28;20763;-60
2021/12/24 06:57:17;;;;;;;17.63;8.13;;;;;;;;;;5013569;28;20703;-60
2021/12/24 06:59:43;;;;;;;20.92;7.95;;;;;;;;;;5012849;28;20245;-60
2021/12/24 07:02:08;;;;;;;19.15;7.78;;;;;;;;;;5011299;28;20220;-60
2021/12/24 07:04:33;;;;;;;16.52;7.40;;;;;;;;;;5012739;28;20220;-60
2021/12/24 07:06:59;;;;;;;21.25;7.53;;;;;;;;;;5013072;28;20292;-60
2021/12/24 07:09:24;;;;;;;20.33;7.68;;;;;;;;;;5013218;28;20212;-60
2021/12/24 07:11:49;;;;;;;20.92;7.88;;;;;;;;;;5013871;28;20208;-60
2021/12/24 07:14:15;;;;;;;23.38;7.50;;;;;;;;;;5012650;28;20700;-60
2021/12/24 07:16:40;;;;;;;21.27;7.38;;;;;;;;;;5013748;28;20614;-60
2021/12/24 07:19:05;;;;;;;21.40;7.70;;;;;;;;;;5013149;28;20351;-60
2021/12/24 07:21:31;;;;;;;20.33;7.88;;;;;;;;;;5012692;28;20204;-60
2021/12/24 07:23:56;;;;;;;18.17;7.18;;;;;;;;;;5013661;28;20216;-60
2021/12/24 07:26:21;;;;;;;21.15;7.35;;;;;;;;;;5011733;28;20566;-60
2021/12/24 07:28:47;;;;;;;22.55;7.68;;;;;;;;;;5012846;28;20223;-60
2021/12/24 07:31:13;;;;;;;20.02;7.50;;;;;;;;;;5012718;28;20208;-60
2021/12/24 07:33:38;;;;;;;23.27;8.30;;;;;;;;;;5013487;28;20213;-60
2021/12/24 07:36:03;;;;;;;17.83;7.70;;;;;;;;;;5011886;28;20291;-60
2021/12/24 07:38:29;;;;;;;21.67;7.93;;;;;;;;;;5012952;28;20224;-59
2021/12/24 07:40:54;;;;;;;23.97;8.33;;;;;;;;;;5011757;28;20922;-58
2021/12/24 07:43:19;;;;;;;23.50;8.75;;;;;;;;;;5012166;28;20223;-59
2021/12/24 07:45:46;;;;;;;25.50;9.13;;;;;;;;;;5012787;28;20858;-59
2021/12/24 07:48:13;;;;;;;20.80;9.13;;;;;;;;;;5012513;28;20542;-59
2021/12/24 07:53:06;;;;;;;25.23;10.20;;;;;;;;;;5011247;28;20208;-60
2021/12/24 07:55:31;;;;;;;21.50;9.00;;;;;;;;;;5011557;28;20223;-59
2021/12/24 07:57:57;;;;;;;21.60;8.95;;;;;;;;;;5010512;28;20221;-60
2021/12/24 08:00:25;;;;;;;25.48;10.25;;;;;;;;;;5012382;28;20295;-60
2021/12/24 08:02:50;;;;;;;24.40;9.15;;;;;;;;;;5011408;28;20216;-60
2021/12/24 08:05:18;;;;;;;23.73;9.63;;;;;;;;;;5011664;28;20215;-60
2021/12/24 08:07:44;;;;;;;22.90;9.40;;;;;;;;;;5012548;28;20217;-59
2021/12/24 08:10:09;;;;;;;23.20;9.13;;;;;;;;;;5011808;28;20263;-59
2021/12/24 08:12:34;;;;;;;25.23;8.80;;;;;;;;;;5012206;28;20233;-59
2021/12/24 08:14:59;;;;;;;31.30;14.80;;;;;;;;;;5012478;28;20212;-60
2021/12/24 08:17:25;;;;;;;22.35;9.55;;;;;;;;;;5010986;28;20220;-61
2021/12/24 08:19:50;;;;;;;27.33;8.85;;;;;;;;;;5012365;28;20262;-60
2021/12/24 08:22:15;;;;;;;26.73;10.82;;;;;;;;;;5011781;28;20240;-60
2021/12/24 08:24:41;;;;;;;31.80;16.93;;;;;;;;;;5010291;28;20485;-59
2021/12/24 08:27:07;;;;;;;28.75;10.95;;;;;;;;;;5012170;28;20350;-59
2021/12/24 08:29:32;;;;;;;22.80;10.82;;;;;;;;;;5012536;28;20295;-59
2021/12/24 08:31:57;;;;;;;34.40;25.92;;;;;;;;;;5010244;28;20672;-60
2021/12/24 08:34:23;;;;;;;28.27;12.23;;;;;;;;;;5011680;28;20687;-59
2021/12/24 08:36:49;;;;;;;31.15;18.75;;;;;;;;;;5012006;28;20307;-60
2021/12/24 08:39:16;;;;;;;26.02;12.65;;;;;;;;;;5009651;28;20212;-60
2021/12/24 08:41:42;;;;;;;29.02;18.15;;;;;;;;;;5012151;28;20213;-60
2021/12/24 08:44:07;;;;;;;25.73;10.88;;;;;;;;;;5011551;28;20220;-60
2021/12/24 08:46:33;;;;;;;21.45;9.13;;;;;;;;;;5011143;28;20303;-59
2021/12/24 08:48:58;;;;;;;32.53;18.15;;;;;;;;;;5011645;28;20216;-60
2021/12/24 08:51:23;;;;;;;28.20;9.43;;;;;;;;;;5010777;28;20331;-59
2021/12/24 08:53:49;;;;;;;24.42;11.50;;;;;;;;;;5010984;28;20212;-60
2021/12/24 08:56:14;;;;;;;27.05;10.75;;;;;;;;;;5011367;28;20283;-59
2021/12/24 08:58:39;;;;;;;31.42;16.80;;;;;;;;;;5011700;28;20258;-60
2021/12/24 09:01:05;;;;;;;30.63;11.75;;;;;;;;;;5009325;28;20638;-60
2021/12/24 09:03:30;;;;;;;25.70;11.68;;;;;;;;;;5010344;28;20213;-60
2021/12/24 09:05:55;;;;;;;29.45;14.60;;;;;;;;;;5011621;28;20263;-60
2021/12/24 09:08:21;;;;;;;27.25;13.77;;;;;;;;;;5010085;28;20204;-60
2021/12/24 09:10:46;;;;;;;25.48;11.18;;;;;;;;;;5011427;28;20300;-60
2021/12/24 09:13:11;;;;;;;32.00;19.00;;;;;;;;;;5011057;28;20221;-60
2021/12/24 09:15:37;;;;;;;33.22;11.45;;;;;;;;;;5010453;28;20270;-60
2021/12/24 09:18:03;;;;;;;36.90;18.15;;;;;;;;;;5010654;28;20220;-59
2021/12/24 09:20:33;;;;;;;30.58;18.67;;;;;;;;;;5011760;28;20215;-60
2021/12/24 09:23:00;;;;;;;32.22;14.15;;;;;;;;;;5013867;28;20219;-60
2021/12/24 09:25:26;;;;;;;38.17;22.38;;;;;;;;;;5011193;28;20266;-60
2021/12/24 09:27:51;;;;;;;37.13;18.88;;;;;;;;;;5008251;28;20216;-60
2021/12/24 09:30:16;;;;;;;32.58;18.90;;;;;;;;;;5009532;28;20544;-60
2021/12/24 09:32:42;;;;;;;34.55;17.30;;;;;;;;;;5012110;28;20315;-60
2021/12/24 09:35:08;;;;;;;35.25;18.80;;;;;;;;;;5008682;28;20584;-60
2021/12/24 09:37:34;;;;;;;39.83;20.92;;;;;;;;;;5010751;28;20220;-60
2021/12/24 09:39:59;;;;;;;34.42;14.35;;;;;;;;;;5009618;28;20227;-60
2021/12/24 09:42:24;;;;;;;32.17;17.70;;;;;;;;;;5009769;28;20697;-60
2021/12/24 09:44:50;;;;;;;27.85;12.32;;;;;;;;;;5011092;28;20245;-60
2021/12/24 09:47:15;;;;;;;33.38;18.30;;;;;;;;;;5010237;28;20232;-60
2021/12/24 09:49:40;;;;;;;44.85;32.97;;;;;;;;;;5009840;28;20208;-60
2021/12/24 09:52:06;;;;;;;34.22;18.40;;;;;;;;;;5010397;28;20691;-60
2021/12/24 09:54:31;;;;;;;39.42;22.10;;;;;;;;;;5007308;28;20707;-60
2021/12/24 09:56:57;;;;;;;31.25;17.77;;;;;;;;;;5009021;28;20303;-60
2021/12/24 09:59:22;;;;;;;36.58;20.52;;;;;;;;;;5009459;28;20277;-59
2021/12/24 10:01:53;;;;;;;36.50;18.63;;;;;;;;;;5010065;28;20292;-60
2021/12/24 10:04:19;;;;;;;33.13;17.52;;;;;;;;;;5008276;28;20212;-60
2021/12/24 10:06:49;;;;;;;34.25;15.48;;;;;;;;;;5010337;28;20212;-60
2021/12/24 10:09:16;;;;;;;37.65;15.45;;;;;;;;;;5008809;28;20644;-60
2021/12/24 10:11:47;;;;;;;30.00;14.07;;;;;;;;;;5009901;28;20212;-60
2021/12/24 10:14:12;;;;;;;31.65;16.17;;;;;;;;;;5009902;28;20691;-60
2021/12/24 10:16:40;;;;;;;39.00;16.33;;;;;;;;;;5010289;28;20224;-60
2021/12/24 10:19:06;;;;;;;32.42;14.15;;;;;;;;;;5007207;28;20220;-60
2021/12/24 10:21:32;;;;;;;34.65;15.07;;;;;;;;;;5010389;28;20278;-59
2021/12/24 10:24:03;;;;;;;32.53;16.13;;;;;;;;;;5008264;28;20695;-59
2021/12/24 10:26:33;;;;;;;34.20;15.23;;;;;;;;;;5005638;28;20235;-59
2021/12/24 10:28:58;;;;;;;31.27;15.45;;;;;;;;;;5010196;28;20765;-59
2021/12/24 10:31:26;;;;;;;31.73;13.23;;;;;;;;;;5009243;28;20220;-59
2021/12/24 10:34:03;;;;;;;25.98;14.15;;;;;;;;;;5010212;28;20219;-59
2021/12/24 10:36:29;;;;;;;32.10;14.00;;;;;;;;;;5010098;28;20299;-59
2021/12/24 10:38:54;;;;;;;29.33;14.48;;;;;;;;;;5009611;28;20938;-59
2021/12/24 10:41:20;;;;;;;26.02;13.50;;;;;;;;;;5009886;28;20621;-60
2021/12/24 10:43:45;;;;;;;34.50;13.75;;;;;;;;;;5012961;28;20318;-59
2021/12/24 10:46:12;;;;;;;33.67;12.95;;;;;;;;;;5026643;28;20236;-60
2021/12/24 10:48:38;;;;;;;27.17;12.23;;;;;;;;;;5024418;28;20208;-59
2021/12/24 10:51:07;;;;;;;31.40;11.95;;;;;;;;;;5012120;28;20231;-59
2021/12/24 10:53:52;;;;;;;30.20;10.93;;;;;;;;;;4991058;28;20228;-59
2021/12/24 10:56:25;;;;;;;24.95;11.80;;;;;;;;;;4992972;28;20291;-59
2021/12/24 10:58:51;;;;;;;32.22;11.25;;;;;;;;;;5009635;28;20259;-59
2021/12/24 11:01:16;;;;;;;35.35;12.43;;;;;;;;;;5003742;28;21154;-59
2021/12/24 11:03:43;;;;;;;29.75;12.52;;;;;;;;;;5008457;28;20307;-60
2021/12/24 11:06:08;;;;;;;26.65;10.20;;;;;;;;;;4995365;28;20211;-61
2021/12/24 11:08:34;;;;;;;28.08;11.77;;;;;;;;;;5009582;28;20224;-60
2021/12/24 11:11:00;;;;;;;26.67;10.65;;;;;;;;;;5009790;28;20220;-60
2021/12/24 11:13:29;;;;;;;32.35;13.10;;;;;;;;;;5008859;28;20212;-60
2021/12/24 11:15:54;;;;;;;30.30;11.38;;;;;;;;;;5004752;28;20918;-60
2021/12/24 11:18:26;;;;;;;23.45;10.48;;;;;;;;;;5032700;28;20246;-60
2021/12/24 11:20:53;;;;;;;32.92;11.52;;;;;;;;;;5012465;28;20248;-60
2021/12/24 11:23:18;;;;;;;26.33;10.57;;;;;;;;;;5012832;28;20712;-60
2021/12/24 11:25:46;;;;;;;28.15;11.00;;;;;;;;;;5013129;28;20213;-60
2021/12/24 11:28:12;;;;;;;26.65;10.05;;;;;;;;;;5011088;28;20212;-60
2021/12/24 11:30:38;;;;;;;28.20;10.65;;;;;;;;;;5013467;28;20211;-60
2021/12/24 11:33:04;;;;;;;27.35;10.65;;;;;;;;;;5011516;28;20225;-60
2021/12/24 11:35:29;;;;;;;27.20;10.63;;;;;;;;;;5011418;28;20255;-60
2021/12/24 11:37:54;;;;;;;28.73;11.02;;;;;;;;;;5011953;28;20310;-60
2021/12/24 11:40:20;;;;;;;26.48;10.50;;;;;;;;;;5012677;28;20277;-60
2021/12/24 11:42:49;;;;;;;25.98;11.32;;;;;;;;;;5011087;28;20239;-60
2021/12/24 11:45:14;;;;;;;28.92;11.77;;;;;;;;;;5010909;28;20220;-60
2021/12/24 11:47:40;;;;;;;30.23;10.43;;;;;;;;;;5012739;28;20216;-60
2021/12/24 11:50:05;;;;;;;27.15;10.85;;;;;;;;;;5012118;28;20220;-60
2021/12/24 11:52:31;;;;;;;27.48;11.77;;;;;;;;;;5012662;28;20289;-60
2021/12/24 11:54:57;;;;;;;26.23;11.57;;;;;;;;;;5013174;28;20207;-60
2021/12/24 11:57:23;;;;;;;25.98;10.82;;;;;;;;;;5011614;28;20224;-61
2021/12/24 11:59:48;;;;;;;28.95;10.07;;;;;;;;;;5012515;28;20212;-60
2021/12/24 12:02:32;;;;;;;25.25;10.20;;;;;;;;;;5008997;28;20865;-60
2021/12/24 12:05:13;;;;;;;26.98;10.00;;;;;;;;;;4998266;28;20221;-60
2021/12/24 12:07:39;;;;;;;21.92;9.50;;;;;;;;;;4998303;28;20524;-61
2021/12/24 12:10:05;;;;;;;26.30;10.95;;;;;;;;;;4996335;28;20566;-61
2021/12/24 12:12:32;;;;;;;24.35;9.40;;;;;;;;;;5003054;28;20223;-61
2021/12/24 12:15:17;;;;;;;21.23;8.00;;;;;;;;;;4989660;28;20220;-60
2021/12/24 12:17:51;;;;;;;24.63;8.38;;;;;;;;;;5005079;28;20680;-60
2021/12/24 12:20:48;;;;;;;19.45;7.47;;;;;;;;;;5006089;28;20664;-61
2021/12/24 12:23:44;;;;;;;26.25;7.53;;;;;;;;;;5005177;28;20310;-61
2021/12/24 12:26:28;;;;;;;30.05;12.70;;;;;;;;;;5003026;28;20216;-61
2021/12/24 12:29:12;;;;;;;27.88;12.85;;;;;;;;;;4999201;28;20694;-61
2021/12/24 12:31:37;;;;;;;24.13;7.93;;;;;;;;;;4997264;28;20235;-61
2021/12/24 12:34:02;;;;;;;22.92;7.60;;;;;;;;;;4996227;28;20208;-61
2021/12/24 12:36:38;;;;;;;24.77;8.88;;;;;;;;;;5006537;28;20327;-60
2021/12/24 12:39:23;;;;;;;28.63;12.95;;;;;;;;;;5005195;28;20216;-60
2021/12/24 12:41:48;;;;;;;40.10;18.00;;;;;;;;;;5004728;28;20758;-60
2021/12/24 12:44:15;;;;;;;38.95;16.70;;;;;;;;;;5006184;28;20208;-60
2021/12/24 12:46:41;;;;;;;24.63;10.70;;;;;;;;;;5004888;28;20290;-60
2021/12/24 12:49:07;;;;;;;33.90;14.88;;;;;;;;;;5004653;28;20220;-61
2021/12/24 12:51:47;;;;;;;27.30;11.73;;;;;;;;;;4997852;28;20258;-60
2021/12/24 12:54:29;;;;;;;28.38;9.63;;;;;;;;;;4996005;28;20530;-61
2021/12/24 12:57:09;;;;;;;26.58;10.00;;;;;;;;;;5000307;28;20236;-60
2021/12/24 12:59:35;;;;;;;50.90;22.17;;;;;;;;;;5004038;28;20230;-61
2021/12/24 13:02:01;;;;;;;20.83;8.93;;;;;;;;;;4999428;28;20672;-61
2021/12/24 13:04:26;;;;;;;26.63;10.15;;;;;;;;;;5006187;28;20216;-60
2021/12/24 13:06:52;;;;;;;22.23;9.18;;;;;;;;;;5005383;28;20585;-60
2021/12/24 13:09:21;;;;;;;24.45;10.93;;;;;;;;;;5005622;28;20700;-60
2021/12/24 13:11:47;;;;;;;26.65;10.77;;;;;;;;;;5003263;28;20227;-60
2021/12/24 13:14:12;;;;;;;26.67;11.65;;;;;;;;;;4995026;28;20216;-61
2021/12/24 13:16:44;;;;;;;22.70;10.48;;;;;;;;;;4992684;28;20726;-60
2021/12/24 13:19:24;;;;;;;26.85;13.20;;;;;;;;;;4998089;28;20710;-61
2021/12/24 13:24:15;;;;;;;25.80;12.88;;;;;;;;;;5005398;28;20676;-60
2021/12/24 13:26:42;;;;;;;24.48;11.65;;;;;;;;;;5004833;28;20257;-60
2021/12/24 13:29:16;;;;;;;21.77;9.98;;;;;;;;;;5005218;28;20263;-60
2021/12/24 13:31:41;;;;;;;24.10;10.93;;;;;;;;;;5000388;28;20204;-60
2021/12/24 13:34:08;;;;;;;22.60;11.52;;;;;;;;;;5003708;28;20302;-60
2021/12/24 13:36:34;;;;;;;23.40;12.50;;;;;;;;;;4993190;28;20274;-60
2021/12/24 13:39:06;;;;;;;23.45;10.48;;;;;;;;;;4997170;28;20220;-60
2021/12/24 13:41:31;;;;;;;22.33;10.77;;;;;;;;;;4995288;28;20291;-59
2021/12/24 13:43:58;;;;;;;23.05;10.43;;;;;;;;;;5005115;28;20213;-60
2021/12/24 13:46:25;;;;;;;22.73;11.02;;;;;;;;;;5004630;28;20231;-60
2021/12/24 13:49:21;;;;;;;23.40;9.65;;;;;;;;;;5004374;28;20212;-60
2021/12/24 13:54:33;;;;;;;25.08;10.40;;;;;;;;;;5004798;28;20637;-60
2021/12/24 13:56:58;;;;;;;24.13;11.52;;;;;;;;;;5002391;28;21195;-60
2021/12/24 13:59:24;;;;;;;21.05;9.68;;;;;;;;;;4995999;28;20618;-60
2021/12/24 14:01:49;;;;;;;16.67;9.32;;;;;;;;;;4992004;28;20244;-60
2021/12/24 14:04:15;;;;;;;19.55;9.98;;;;;;;;;;4996453;28;20301;-60
2021/12/24 14:06:41;;;;;;;16.90;9.60;;;;;;;;;;5003611;28;20295;-60
2021/12/24 14:09:09;;;;;;;20.05;9.07;;;;;;;;;;5004098;28;20212;-61
2021/12/24 14:11:36;;;;;;;20.75;9.65;;;;;;;;;;5003810;28;20244;-60
2021/12/24 14:14:06;;;;;;;23.70;10.75;;;;;;;;;;5002840;28;20714;-60
2021/12/24 14:19:08;;;;;;;18.42;9.93;;;;;;;;;;5002839;28;20566;-59
2021/12/24 14:24:04;;;;;;;19.30;9.43;;;;;;;;;;4994562;28;20683;-60
2021/12/24 14:26:34;;;;;;;14.40;7.72;;;;;;;;;;4995940;28;20683;-60
2021/12/24 14:29:02;;;;;;;15.48;7.00;;;;;;;;;;5003773;28;20216;-61
2021/12/24 14:31:27;;;;;;;13.80;6.25;;;;;;;;;;4999135;28;20212;-60
2021/12/24 14:33:52;;;;;;;15.00;7.85;;;;;;;;;;5010237;28;20265;-60
2021/12/24 14:36:18;;;;;;;9.63;6.28;;;;;;;;;;5010936;28;20231;-60
2021/12/24 14:38:44;;;;;;;9.95;6.30;;;;;;;;;;5010412;28;20248;-60
2021/12/24 14:41:14;;;;;;;10.60;6.13;;;;;;;;;;5009975;28;20290;-60
2021/12/24 14:43:40;;;;;;;20.13;14.15;;;;;;;;;;5009078;28;20204;-60
2021/12/24 14:46:06;;;;;;;14.73;11.52;;;;;;;;;;5008581;28;20298;-60
2021/12/24 14:48:32;;;;;;;10.48;6.97;;;;;;;;;;5010601;28;20805;-59
2021/12/24 14:50:59;;;;;;;11.18;6.35;;;;;;;;;;5013918;28;20204;-60
2021/12/24 14:53:27;;;;;;;13.32;6.53;;;;;;;;;;5015221;28;20565;-60
2021/12/24 14:55:54;;;;;;;8.20;5.53;;;;;;;;;;5033835;28;20219;-60
2021/12/24 14:58:30;;;;;;;9.88;6.60;;;;;;;;;;5032554;28;20246;-61
2021/12/24 15:00:55;;;;;;;10.95;6.13;;;;;;;;;;5015448;28;20219;-61
2021/12/24 15:03:21;;;;;;;7.25;5.68;;;;;;;;;;5013459;28;20216;-61
2021/12/24 15:05:47;;;;;;;9.40;6.00;;;;;;;;;;5012865;28;20216;-61
2021/12/24 15:08:17;;;;;;;7.00;5.07;;;;;;;;;;5013361;28;20263;-61
2021/12/24 15:10:58;;;;;;;9.15;5.70;;;;;;;;;;5013883;28;20270;-61
2021/12/24 15:13:25;;;;;;;8.20;4.82;;;;;;;;;;5011371;28;20212;-61
2021/12/24 15:15:50;;;;;;;16.08;12.10;;;;;;;;;;5012066;28;20224;-61
2021/12/24 15:18:16;;;;;;;14.25;10.02;;;;;;;;;;5008448;28;20236;-62
2021/12/24 15:20:41;;;;;;;11.85;9.98;;;;;;;;;;5012765;28;20868;-61
2021/12/24 15:23:06;;;;;;;6.53;4.55;;;;;;;;;;5003948;28;20239;-62
2021/12/24 15:25:32;;;;;;;8.40;5.80;;;;;;;;;;5013600;28;20212;-61
2021/12/24 15:28:01;;;;;;;6.47;4.22;;;;;;;;;;5012441;28;20221;-61
2021/12/24 15:30:26;;;;;;;5.30;2.10;;;;;;;;;;5012536;28;20572;-61
2021/12/24 15:32:51;;;;;;;4.70;3.03;;;;;;;;;;5011796;28;20209;-61
2021/12/24 15:35:16;;;;;;;5.57;3.10;;;;;;;;;;5011720;28;20220;-61
2021/12/24 15:37:42;;;;;;;4.10;1.77;;;;;;;;;;5013230;28;20216;-61
2021/12/24 15:40:07;;;;;;;4.57;2.58;;;;;;;;;;5012651;28;20220;-61
2021/12/24 15:42:33;;;;;;;5.75;3.25;;;;;;;;;;5012414;28;20628;-61
2021/12/24 15:44:58;;;;;;;5.25;2.35;;;;;;;;;;5013000;28;20215;-61
2021/12/24 15:47:23;;;;;;;4.85;1.70;;;;;;;;;;5011372;28;20232;-61
2021/12/24 15:49:49;;;;;;;5.78;2.30;;;;;;;;;;5011076;28;20209;-61